sensor_id;sensor_type;location;lat;lon;timestamp;temperature;humidity
3628;DHT22;1830;49.000;12.074;2023-02-15T00:00:09;-0.20;99.90
3628;DHT22;1830;49.000;12.074;2023-02-15T00:02:36;-0.10;99.90
3628;DHT22;1830;49.000;12.074;2023-02-15T00:05:03;-0.10;99.90
3628;DHT22;1830;49.000;12.074;2023-02-15T00:07:30;-0.20;99.90
3628;DHT22;1830;49.000;12.074;2023-02-15T00:09:57;-0.20;99.90
3628;DHT22;1830;49.000;12.074;2023-02-15T00:12:24;-0.30;99.90
3628;DHT22;1830;49.000;12.074;2023-02-15T00:14:51;-0.40;99.90
3628;DHT22;1830;49.000;12.074;2023-02-15T00:17:20;-0.30;99.90
3628;DHT22;1830;49.000;12.074;2023-02-15T00:19:46;-0.20;99.90
3628;DHT22;1830;49.000;12.074;2023-02-15T00:22:13;-0.10;99.90
3628;DHT22;1830;49.000;12.074;2023-02-15T00:24:40;-0.20;99.90
3628;DHT22;1830;49.000;12.074;2023-02-15T00:27:07;-0.20;99.90
3628;DHT22;1830;49.000;12.074;2023-02-15T00:29:34;-0.30;99.90
3628;DHT22;1830;49.000;12.074;2023-02-15T00:32:01;-0.20;99.90
3628;DHT22;1830;49.000;12.074;2023-02-15T00:34:29;-0.10;99.90
3628;DHT22;1830;49.000;12.074;2023-02-15T00:36:56;-0.20;99.90
3628;DHT22;1830;49.000;12.074;2023-02-15T00:39:23;-0.10;99.90
3628;DHT22;1830;49.000;12.074;2023-02-15T00:41:50;0.00;99.90
3628;DHT22;1830;49.000;12.074;2023-02-15T00:44:17;0.00;99.90
3628;DHT22;1830;49.000;12.074;2023-02-15T00:46:44;0.00;99.90
3628;DHT22;1830;49.000;12.074;2023-02-15T00:49:11;-0.10;99.90
3628;DHT22;1830;49.000;12.074;2023-02-15T00:51:39;-0.20;99.90
3628;DHT22;1830;49.000;12.074;2023-02-15T00:54:06;-0.30;99.90
3628;DHT22;1830;49.000;12.074;2023-02-15T00:56:33;-0.20;99.90
3628;DHT22;1830;49.000;12.074;2023-02-15T00:59:00;0.00;99.90
3628;DHT22;1830;49.000;12.074;2023-02-15T01:01:26;0.00;99.90
3628;DHT22;1830;49.000;12.074;2023-02-15T01:03:53;-0.10;99.90
3628;DHT22;1830;49.000;12.074;2023-02-15T01:06:20;-0.10;99.90
3628;DHT22;1830;49.000;12.074;2023-02-15T01:08:48;-0.30;99.90
3628;DHT22;1830;49.000;12.074;2023-02-15T01:11:17;-0.20;99.90
3628;DHT22;1830;49.000;12.074;2023-02-15T01:13:47;-0.30;99.90
3628;DHT22;1830;49.000;12.074;2023-02-15T01:16:14;-0.40;99.90
3628;DHT22;1830;49.000;12.074;2023-02-15T01:18:41;-0.40;99.90
3628;DHT22;1830;49.000;12.074;2023-02-15T01:21:12;-0.40;99.90
3628;DHT22;1830;49.000;12.074;2023-02-15T01:23:39;-0.40;99.90
3628;DHT22;1830;49.000;12.074;2023-02-15T01:26:07;-0.40;99.90
3628;DHT22;1830;49.000;12.074;2023-02-15T01:28:34;-0.40;99.90
3628;DHT22;1830;49.000;12.074;2023-02-15T01:31:05;-0.40;99.90
3628;DHT22;1830;49.000;12.074;2023-02-15T01:33:32;-0.40;99.90
3628;DHT22;1830;49.000;12.074;2023-02-15T01:35:59;-0.30;99.90
3628;DHT22;1830;49.000;12.074;2023-02-15T01:38:25;-0.30;99.90
3628;DHT22;1830;49.000;12.074;2023-02-15T01:40:52;-0.30;99.90
3628;DHT22;1830;49.000;12.074;2023-02-15T01:43:42;-0.30;99.90
3628;DHT22;1830;49.000;12.074;2023-02-15T01:46:11;-0.30;99.90
3628;DHT22;1830;49.000;12.074;2023-02-15T01:48:43;-0.40;99.90
3628;DHT22;1830;49.000;12.074;2023-02-15T01:51:11;-0.40;99.90
3628;DHT22;1830;49.000;12.074;2023-02-15T01:53:43;-0.30;99.90
3628;DHT22;1830;49.000;12.074;2023-02-15T01:56:15;-0.20;99.90
3628;DHT22;1830;49.000;12.074;2023-02-15T01:58:45;-0.20;99.90
3628;DHT22;1830;49.000;12.074;2023-02-15T02:01:13;-0.10;99.90
3628;DHT22;1830;49.000;12.074;2023-02-15T02:03:46;-0.10;99.90
3628;DHT22;1830;49.000;12.074;2023-02-15T02:06:15;0.00;99.90
3628;DHT22;1830;49.000;12.074;2023-02-15T02:08:42;0.00;99.90
3628;DHT22;1830;49.000;12.074;2023-02-15T02:11:10;-0.10;99.90
3628;DHT22;1830;49.000;12.074;2023-02-15T02:13:37;-0.10;99.90
3628;DHT22;1830;49.000;12.074;2023-02-15T02:16:10;-0.10;99.90
3628;DHT22;1830;49.000;12.074;2023-02-15T02:18:44;-0.10;99.90
3628;DHT22;1830;49.000;12.074;2023-02-15T02:21:58;-0.10;99.90
3628;DHT22;1830;49.000;12.074;2023-02-15T02:24:57;-0.20;99.90
3628;DHT22;1830;49.000;12.074;2023-02-15T02:27:34;-0.10;99.90
3628;DHT22;1830;49.000;12.074;2023-02-15T02:30:20;-0.10;99.90
3628;DHT22;1830;49.000;12.074;2023-02-15T02:33:14;-0.20;99.90
3628;DHT22;1830;49.000;12.074;2023-02-15T02:35:49;-0.10;99.90
3628;DHT22;1830;49.000;12.074;2023-02-15T02:38:23;-0.10;99.90
3628;DHT22;1830;49.000;12.074;2023-02-15T02:40:58;-0.20;99.90
3628;DHT22;1830;49.000;12.074;2023-02-15T02:43:32;-0.30;99.90
3628;DHT22;1830;49.000;12.074;2023-02-15T02:46:05;-0.30;99.90
3628;DHT22;1830;49.000;12.074;2023-02-15T02:48:36;-0.40;99.90
3628;DHT22;1830;49.000;12.074;2023-02-15T02:51:03;-0.30;99.90
3628;DHT22;1830;49.000;12.074;2023-02-15T02:53:31;-0.40;99.90
3628;DHT22;1830;49.000;12.074;2023-02-15T02:56:03;-0.70;99.90
3628;DHT22;1830;49.000;12.074;2023-02-15T02:58:33;-0.60;99.90
3628;DHT22;1830;49.000;12.074;2023-02-15T03:01:06;-0.50;99.90
3628;DHT22;1830;49.000;12.074;2023-02-15T03:03:39;-0.40;99.90
3628;DHT22;1830;49.000;12.074;2023-02-15T03:06:08;-0.50;99.90
3628;DHT22;1830;49.000;12.074;2023-02-15T03:08:39;-0.70;99.90
3628;DHT22;1830;49.000;12.074;2023-02-15T03:11:07;-0.70;99.90
3628;DHT22;1830;49.000;12.074;2023-02-15T03:13:34;-0.60;99.90
3628;DHT22;1830;49.000;12.074;2023-02-15T03:16:03;-0.60;99.90
3628;DHT22;1830;49.000;12.074;2023-02-15T03:18:53;-0.60;99.90
3628;DHT22;1830;49.000;12.074;2023-02-15T03:21:28;-0.70;99.90
3628;DHT22;1830;49.000;12.074;2023-02-15T03:24:03;-0.60;99.90
3628;DHT22;1830;49.000;12.074;2023-02-15T03:26:34;-0.60;99.90
3628;DHT22;1830;49.000;12.074;2023-02-15T03:29:04;-0.60;99.90
3628;DHT22;1830;49.000;12.074;2023-02-15T03:31:33;-0.70;99.90
3628;DHT22;1830;49.000;12.074;2023-02-15T03:34:04;-0.70;99.90
3628;DHT22;1830;49.000;12.074;2023-02-15T03:36:36;-0.60;99.90
3628;DHT22;1830;49.000;12.074;2023-02-15T03:39:08;-0.60;99.90
3628;DHT22;1830;49.000;12.074;2023-02-15T03:41:40;-0.70;99.90
3628;DHT22;1830;49.000;12.074;2023-02-15T03:44:12;-0.70;99.90
3628;DHT22;1830;49.000;12.074;2023-02-15T03:46:45;-0.70;99.90
3628;DHT22;1830;49.000;12.074;2023-02-15T03:49:20;-0.90;99.90
3628;DHT22;1830;49.000;12.074;2023-02-15T03:51:49;-0.90;99.90
3628;DHT22;1830;49.000;12.074;2023-02-15T03:54:21;-0.90;99.90
3628;DHT22;1830;49.000;12.074;2023-02-15T03:57:03;-1.00;99.90
3628;DHT22;1830;49.000;12.074;2023-02-15T04:00:00;-0.90;99.90
3628;DHT22;1830;49.000;12.074;2023-02-15T04:03:01;-0.70;99.90
3628;DHT22;1830;49.000;12.074;2023-02-15T04:05:33;-0.60;99.90
3628;DHT22;1830;49.000;12.074;2023-02-15T04:08:00;-0.60;99.90
3628;DHT22;1830;49.000;12.074;2023-02-15T04:10:27;-0.60;99.90
3628;DHT22;1830;49.000;12.074;2023-02-15T04:13:11;-0.60;99.90
3628;DHT22;1830;49.000;12.074;2023-02-15T04:15:38;-0.70;99.90
3628;DHT22;1830;49.000;12.074;2023-02-15T04:18:23;-0.80;99.90
3628;DHT22;1830;49.000;12.074;2023-02-15T04:21:08;-0.80;99.90
3628;DHT22;1830;49.000;12.074;2023-02-15T04:23:52;-0.60;99.90
3628;DHT22;1830;49.000;12.074;2023-02-15T04:26:36;-0.60;99.90
3628;DHT22;1830;49.000;12.074;2023-02-15T04:29:03;-0.70;99.90
3628;DHT22;1830;49.000;12.074;2023-02-15T04:31:30;-0.60;99.90
3628;DHT22;1830;49.000;12.074;2023-02-15T04:33:56;-0.60;99.90
3628;DHT22;1830;49.000;12.074;2023-02-15T04:36:24;-0.60;99.90
3628;DHT22;1830;49.000;12.074;2023-02-15T04:38:51;-0.60;99.90
3628;DHT22;1830;49.000;12.074;2023-02-15T04:41:18;-0.50;99.90
3628;DHT22;1830;49.000;12.074;2023-02-15T04:43:44;-0.50;99.90
3628;DHT22;1830;49.000;12.074;2023-02-15T04:46:11;-0.50;99.90
3628;DHT22;1830;49.000;12.074;2023-02-15T04:48:38;-0.60;99.90
3628;DHT22;1830;49.000;12.074;2023-02-15T04:51:05;-0.70;99.90
3628;DHT22;1830;49.000;12.074;2023-02-15T04:53:34;-0.60;99.90
3628;DHT22;1830;49.000;12.074;2023-02-15T04:56:01;-0.50;99.90
3628;DHT22;1830;49.000;12.074;2023-02-15T04:58:28;-0.50;99.90
3628;DHT22;1830;49.000;12.074;2023-02-15T05:00:55;-0.50;99.90
3628;DHT22;1830;49.000;12.074;2023-02-15T05:03:22;-0.50;99.90
3628;DHT22;1830;49.000;12.074;2023-02-15T05:05:49;-0.50;99.90
3628;DHT22;1830;49.000;12.074;2023-02-15T05:08:16;-0.60;99.90
3628;DHT22;1830;49.000;12.074;2023-02-15T05:10:44;-0.70;99.90
3628;DHT22;1830;49.000;12.074;2023-02-15T05:13:10;-0.60;99.90
3628;DHT22;1830;49.000;12.074;2023-02-15T05:15:37;-0.50;99.90
3628;DHT22;1830;49.000;12.074;2023-02-15T05:18:04;-0.60;99.90
3628;DHT22;1830;49.000;12.074;2023-02-15T05:20:32;-0.60;99.90
3628;DHT22;1830;49.000;12.074;2023-02-15T05:22:58;-0.60;99.90
3628;DHT22;1830;49.000;12.074;2023-02-15T05:25:26;-0.50;99.90
3628;DHT22;1830;49.000;12.074;2023-02-15T05:28:12;-0.50;99.90
3628;DHT22;1830;49.000;12.074;2023-02-15T05:30:48;-0.50;99.90
3628;DHT22;1830;49.000;12.074;2023-02-15T05:33:15;-0.60;99.90
3628;DHT22;1830;49.000;12.074;2023-02-15T05:35:42;-0.60;99.90
3628;DHT22;1830;49.000;12.074;2023-02-15T05:38:09;-0.70;99.90
3628;DHT22;1830;49.000;12.074;2023-02-15T05:40:36;-0.10;99.90
3628;DHT22;1830;49.000;12.074;2023-02-15T05:43:03;-0.10;99.90
3628;DHT22;1830;49.000;12.074;2023-02-15T05:45:31;-0.20;99.90
3628;DHT22;1830;49.000;12.074;2023-02-15T05:47:57;-0.20;99.90
3628;DHT22;1830;49.000;12.074;2023-02-15T05:50:24;-0.30;99.90
3628;DHT22;1830;49.000;12.074;2023-02-15T05:52:51;-0.30;99.90
3628;DHT22;1830;49.000;12.074;2023-02-15T05:55:18;-0.50;99.90
3628;DHT22;1830;49.000;12.074;2023-02-15T05:57:45;-0.50;99.90
3628;DHT22;1830;49.000;12.074;2023-02-15T06:00:13;-0.40;99.90
3628;DHT22;1830;49.000;12.074;2023-02-15T06:02:41;-0.50;99.90
3628;DHT22;1830;49.000;12.074;2023-02-15T06:05:08;-0.70;99.90
3628;DHT22;1830;49.000;12.074;2023-02-15T06:07:35;-0.50;99.90
3628;DHT22;1830;49.000;12.074;2023-02-15T06:10:02;-0.60;99.90
3628;DHT22;1830;49.000;12.074;2023-02-15T06:12:29;-0.60;99.90
3628;DHT22;1830;49.000;12.074;2023-02-15T06:14:56;-0.60;99.90
3628;DHT22;1830;49.000;12.074;2023-02-15T06:17:22;-0.70;99.90
3628;DHT22;1830;49.000;12.074;2023-02-15T06:19:50;-0.70;99.90
3628;DHT22;1830;49.000;12.074;2023-02-15T06:22:17;-0.60;99.90
3628;DHT22;1830;49.000;12.074;2023-02-15T06:24:45;-0.60;99.90
3628;DHT22;1830;49.000;12.074;2023-02-15T06:27:12;-0.60;99.90
3628;DHT22;1830;49.000;12.074;2023-02-15T06:29:39;-0.60;99.90
3628;DHT22;1830;49.000;12.074;2023-02-15T06:32:06;-0.50;99.90
3628;DHT22;1830;49.000;12.074;2023-02-15T06:34:32;-0.60;99.90
3628;DHT22;1830;49.000;12.074;2023-02-15T06:37:00;-0.70;99.90
3628;DHT22;1830;49.000;12.074;2023-02-15T06:39:27;-0.70;99.90
3628;DHT22;1830;49.000;12.074;2023-02-15T06:41:54;-0.70;99.90
3628;DHT22;1830;49.000;12.074;2023-02-15T06:44:21;-0.70;99.90
3628;DHT22;1830;49.000;12.074;2023-02-15T06:46:47;-0.70;99.90
3628;DHT22;1830;49.000;12.074;2023-02-15T06:49:14;-0.80;99.90
3628;DHT22;1830;49.000;12.074;2023-02-15T06:51:41;-0.70;99.90
3628;DHT22;1830;49.000;12.074;2023-02-15T06:54:09;-0.80;99.90
3628;DHT22;1830;49.000;12.074;2023-02-15T06:56:36;-0.80;99.90
3628;DHT22;1830;49.000;12.074;2023-02-15T06:59:02;-0.90;99.90
3628;DHT22;1830;49.000;12.074;2023-02-15T07:01:29;-0.80;99.90
3628;DHT22;1830;49.000;12.074;2023-02-15T07:03:56;-0.80;99.90
3628;DHT22;1830;49.000;12.074;2023-02-15T07:06:22;-0.90;99.90
3628;DHT22;1830;49.000;12.074;2023-02-15T07:08:49;-0.80;99.90
3628;DHT22;1830;49.000;12.074;2023-02-15T07:11:17;-0.70;99.90
3628;DHT22;1830;49.000;12.074;2023-02-15T07:14:01;-0.70;99.90
3628;DHT22;1830;49.000;12.074;2023-02-15T07:16:28;-0.80;99.90
3628;DHT22;1830;49.000;12.074;2023-02-15T07:18:55;-0.90;99.90
3628;DHT22;1830;49.000;12.074;2023-02-15T07:21:22;-0.70;99.90
3628;DHT22;1830;49.000;12.074;2023-02-15T07:23:49;-0.70;99.90
3628;DHT22;1830;49.000;12.074;2023-02-15T07:26:17;-0.80;99.90
3628;DHT22;1830;49.000;12.074;2023-02-15T07:28:44;-0.80;99.90
3628;DHT22;1830;49.000;12.074;2023-02-15T07:31:10;-0.90;99.90
3628;DHT22;1830;49.000;12.074;2023-02-15T07:33:37;-0.90;99.90
3628;DHT22;1830;49.000;12.074;2023-02-15T07:36:04;-0.80;99.90
3628;DHT22;1830;49.000;12.074;2023-02-15T07:38:33;-0.80;99.90
3628;DHT22;1830;49.000;12.074;2023-02-15T07:41:00;-0.80;99.90
3628;DHT22;1830;49.000;12.074;2023-02-15T07:43:29;-0.90;99.90
3628;DHT22;1830;49.000;12.074;2023-02-15T07:45:59;-0.60;99.90
3628;DHT22;1830;49.000;12.074;2023-02-15T07:48:26;-0.60;99.90
3628;DHT22;1830;49.000;12.074;2023-02-15T07:50:53;-0.70;99.90
3628;DHT22;1830;49.000;12.074;2023-02-15T07:53:19;-0.70;99.90
3628;DHT22;1830;49.000;12.074;2023-02-15T07:55:46;-0.80;99.90
3628;DHT22;1830;49.000;12.074;2023-02-15T07:58:13;-0.80;99.90
3628;DHT22;1830;49.000;12.074;2023-02-15T08:00:41;-0.70;99.90
3628;DHT22;1830;49.000;12.074;2023-02-15T08:03:35;-0.70;99.90
3628;DHT22;1830;49.000;12.074;2023-02-15T08:06:01;-0.80;99.90
3628;DHT22;1830;49.000;12.074;2023-02-15T08:08:28;-0.80;99.90
3628;DHT22;1830;49.000;12.074;2023-02-15T08:10:59;-0.70;99.90
3628;DHT22;1830;49.000;12.074;2023-02-15T08:13:44;-0.60;99.90
3628;DHT22;1830;49.000;12.074;2023-02-15T08:16:23;-0.70;99.90
3628;DHT22;1830;49.000;12.074;2023-02-15T08:18:53;-0.70;99.90
3628;DHT22;1830;49.000;12.074;2023-02-15T08:21:20;-0.50;99.90
3628;DHT22;1830;49.000;12.074;2023-02-15T08:23:46;-0.60;99.90
3628;DHT22;1830;49.000;12.074;2023-02-15T08:26:13;-0.50;99.90
3628;DHT22;1830;49.000;12.074;2023-02-15T08:28:42;-0.60;99.90
3628;DHT22;1830;49.000;12.074;2023-02-15T08:31:11;-0.50;99.90
3628;DHT22;1830;49.000;12.074;2023-02-15T08:33:40;-0.60;99.90
3628;DHT22;1830;49.000;12.074;2023-02-15T08:36:11;-0.50;99.90
3628;DHT22;1830;49.000;12.074;2023-02-15T08:38:38;-0.50;99.90
3628;DHT22;1830;49.000;12.074;2023-02-15T08:41:13;-0.70;99.90
3628;DHT22;1830;49.000;12.074;2023-02-15T08:43:41;-0.60;99.90
3628;DHT22;1830;49.000;12.074;2023-02-15T08:46:09;-0.70;99.90
3628;DHT22;1830;49.000;12.074;2023-02-15T08:48:36;-0.60;99.90
3628;DHT22;1830;49.000;12.074;2023-02-15T08:51:10;-0.60;99.90
3628;DHT22;1830;49.000;12.074;2023-02-15T08:53:37;-0.70;99.90
3628;DHT22;1830;49.000;12.074;2023-02-15T08:56:05;-0.70;99.90
3628;DHT22;1830;49.000;12.074;2023-02-15T08:58:32;-0.80;99.90
3628;DHT22;1830;49.000;12.074;2023-02-15T09:00:59;-0.70;99.90
3628;DHT22;1830;49.000;12.074;2023-02-15T09:03:27;-0.80;99.90
3628;DHT22;1830;49.000;12.074;2023-02-15T09:05:58;-0.80;99.90
3628;DHT22;1830;49.000;12.074;2023-02-15T09:08:26;-0.90;99.90
3628;DHT22;1830;49.000;12.074;2023-02-15T09:10:54;-0.90;99.90
3628;DHT22;1830;49.000;12.074;2023-02-15T09:13:21;-0.90;99.90
3628;DHT22;1830;49.000;12.074;2023-02-15T09:15:47;-0.80;99.90
3628;DHT22;1830;49.000;12.074;2023-02-15T09:18:14;-0.60;99.90
3628;DHT22;1830;49.000;12.074;2023-02-15T09:20:43;-0.60;99.90
3628;DHT22;1830;49.000;12.074;2023-02-15T09:23:10;-0.50;99.90
3628;DHT22;1830;49.000;12.074;2023-02-15T09:25:38;-0.80;99.90
3628;DHT22;1830;49.000;12.074;2023-02-15T09:28:05;-0.70;99.90
3628;DHT22;1830;49.000;12.074;2023-02-15T09:30:32;-0.70;99.90
3628;DHT22;1830;49.000;12.074;2023-02-15T09:32:58;-0.60;99.90
3628;DHT22;1830;49.000;12.074;2023-02-15T09:35:25;-0.50;99.90
3628;DHT22;1830;49.000;12.074;2023-02-15T09:37:52;-0.60;99.90
3628;DHT22;1830;49.000;12.074;2023-02-15T09:40:19;-0.50;99.90
3628;DHT22;1830;49.000;12.074;2023-02-15T09:43:22;-0.40;99.90
3628;DHT22;1830;49.000;12.074;2023-02-15T09:46:16;-0.50;99.90
3628;DHT22;1830;49.000;12.074;2023-02-15T09:48:48;-0.50;99.90
3628;DHT22;1830;49.000;12.074;2023-02-15T09:51:27;-0.50;99.90
3628;DHT22;1830;49.000;12.074;2023-02-15T09:54:09;-0.40;99.90
3628;DHT22;1830;49.000;12.074;2023-02-15T09:56:47;-0.50;99.90
3628;DHT22;1830;49.000;12.074;2023-02-15T09:59:21;-0.60;99.90
3628;DHT22;1830;49.000;12.074;2023-02-15T10:01:58;-0.50;99.90
3628;DHT22;1830;49.000;12.074;2023-02-15T10:04:49;-0.60;99.90
3628;DHT22;1830;49.000;12.074;2023-02-15T10:07:28;-0.60;99.90
3628;DHT22;1830;49.000;12.074;2023-02-15T10:10:11;-0.50;99.90
3628;DHT22;1830;49.000;12.074;2023-02-15T10:13:05;-0.50;99.90
3628;DHT22;1830;49.000;12.074;2023-02-15T10:16:00;-0.30;99.90
3628;DHT22;1830;49.000;12.074;2023-02-15T10:18:48;-0.40;99.90
3628;DHT22;1830;49.000;12.074;2023-02-15T10:21:26;-0.40;99.90
3628;DHT22;1830;49.000;12.074;2023-02-15T10:24:15;-0.50;99.90
3628;DHT22;1830;49.000;12.074;2023-02-15T10:26:47;-0.30;99.90
3628;DHT22;1830;49.000;12.074;2023-02-15T10:29:23;-0.30;99.90
3628;DHT22;1830;49.000;12.074;2023-02-15T10:32:02;-0.80;99.90
3628;DHT22;1830;49.000;12.074;2023-02-15T10:34:35;-0.70;99.90
3628;DHT22;1830;49.000;12.074;2023-02-15T10:37:35;-0.80;99.90
3628;DHT22;1830;49.000;12.074;2023-02-15T10:40:10;-0.40;99.90
3628;DHT22;1830;49.000;12.074;2023-02-15T10:42:49;-0.10;99.90
3628;DHT22;1830;49.000;12.074;2023-02-15T10:45:24;-0.10;99.90
3628;DHT22;1830;49.000;12.074;2023-02-15T10:48:05;0.00;99.90
3628;DHT22;1830;49.000;12.074;2023-02-15T10:50:46;-0.10;99.90
3628;DHT22;1830;49.000;12.074;2023-02-15T10:53:24;-0.10;99.90
3628;DHT22;1830;49.000;12.074;2023-02-15T10:56:00;-0.30;99.90
3628;DHT22;1830;49.000;12.074;2023-02-15T10:58:39;-0.30;99.90
3628;DHT22;1830;49.000;12.074;2023-02-15T11:01:15;-0.10;99.90
3628;DHT22;1830;49.000;12.074;2023-02-15T11:06:42;-0.20;99.90
3628;DHT22;1830;49.000;12.074;2023-02-15T11:09:14;-0.10;99.90
3628;DHT22;1830;49.000;12.074;2023-02-15T11:11:45;0.10;99.90
3628;DHT22;1830;49.000;12.074;2023-02-15T11:14:15;0.10;99.90
3628;DHT22;1830;49.000;12.074;2023-02-15T11:16:48;0.00;99.90
3628;DHT22;1830;49.000;12.074;2023-02-15T11:19:21;0.10;99.90
3628;DHT22;1830;49.000;12.074;2023-02-15T11:21:54;0.20;99.90
3628;DHT22;1830;49.000;12.074;2023-02-15T11:24:26;0.20;99.90
3628;DHT22;1830;49.000;12.074;2023-02-15T11:26:56;0.10;99.90
3628;DHT22;1830;49.000;12.074;2023-02-15T11:29:28;0.00;99.90
3628;DHT22;1830;49.000;12.074;2023-02-15T11:31:59;-0.10;99.90
3628;DHT22;1830;49.000;12.074;2023-02-15T11:34:31;-0.10;99.90
3628;DHT22;1830;49.000;12.074;2023-02-15T11:37:05;0.00;99.90
3628;DHT22;1830;49.000;12.074;2023-02-15T11:39:33;0.00;99.90
3628;DHT22;1830;49.000;12.074;2023-02-15T11:42:06;0.00;99.90
3628;DHT22;1830;49.000;12.074;2023-02-15T11:44:41;0.00;99.90
3628;DHT22;1830;49.000;12.074;2023-02-15T11:47:10;0.10;99.90
3628;DHT22;1830;49.000;12.074;2023-02-15T11:49:38;0.10;99.90
3628;DHT22;1830;49.000;12.074;2023-02-15T11:52:10;0.10;99.90
3628;DHT22;1830;49.000;12.074;2023-02-15T11:54:42;0.10;99.90
3628;DHT22;1830;49.000;12.074;2023-02-15T11:57:14;0.10;99.90
3628;DHT22;1830;49.000;12.074;2023-02-15T11:59:44;0.10;99.90
3628;DHT22;1830;49.000;12.074;2023-02-15T12:02:16;0.10;99.90
3628;DHT22;1830;49.000;12.074;2023-02-15T12:04:48;0.20;99.90
3628;DHT22;1830;49.000;12.074;2023-02-15T12:07:21;0.20;99.90
3628;DHT22;1830;49.000;12.074;2023-02-15T12:09:57;0.30;99.90
3628;DHT22;1830;49.000;12.074;2023-02-15T12:12:27;0.20;99.90
3628;DHT22;1830;49.000;12.074;2023-02-15T12:14:55;0.10;99.90
3628;DHT22;1830;49.000;12.074;2023-02-15T12:17:24;0.00;99.90
3628;DHT22;1830;49.000;12.074;2023-02-15T12:19:53;0.10;99.90
3628;DHT22;1830;49.000;12.074;2023-02-15T12:22:25;0.10;99.90
3628;DHT22;1830;49.000;12.074;2023-02-15T12:24:55;0.30;99.90
3628;DHT22;1830;49.000;12.074;2023-02-15T12:27:25;0.10;99.90
3628;DHT22;1830;49.000;12.074;2023-02-15T12:29:56;0.00;99.90
3628;DHT22;1830;49.000;12.074;2023-02-15T12:32:26;0.10;99.90
3628;DHT22;1830;49.000;12.074;2023-02-15T12:34:59;0.00;99.90
3628;DHT22;1830;49.000;12.074;2023-02-15T12:37:31;0.00;99.90
3628;DHT22;1830;49.000;12.074;2023-02-15T12:40:01;0.00;99.90
3628;DHT22;1830;49.000;12.074;2023-02-15T12:42:41;0.10;99.90
3628;DHT22;1830;49.000;12.074;2023-02-15T12:45:21;0.20;99.90
3628;DHT22;1830;49.000;12.074;2023-02-15T12:48:08;0.10;99.90
3628;DHT22;1830;49.000;12.074;2023-02-15T12:50:36;0.10;99.90
3628;DHT22;1830;49.000;12.074;2023-02-15T12:53:11;0.10;99.90
3628;DHT22;1830;49.000;12.074;2023-02-15T12:55:50;0.30;99.90
3628;DHT22;1830;49.000;12.074;2023-02-15T12:58:20;0.20;99.90
3628;DHT22;1830;49.000;12.074;2023-02-15T13:01:03;0.40;99.90
3628;DHT22;1830;49.000;12.074;2023-02-15T13:03:30;0.50;99.90
3628;DHT22;1830;49.000;12.074;2023-02-15T13:05:58;0.50;99.90
3628;DHT22;1830;49.000;12.074;2023-02-15T13:08:30;0.50;99.90
3628;DHT22;1830;49.000;12.074;2023-02-15T13:10:59;0.50;99.90
3628;DHT22;1830;49.000;12.074;2023-02-15T13:13:28;0.50;99.90
3628;DHT22;1830;49.000;12.074;2023-02-15T13:15:58;0.60;99.90
3628;DHT22;1830;49.000;12.074;2023-02-15T13:18:31;0.40;99.90
3628;DHT22;1830;49.000;12.074;2023-02-15T13:21:04;0.40;99.90
3628;DHT22;1830;49.000;12.074;2023-02-15T13:23:32;0.30;99.90
3628;DHT22;1830;49.000;12.074;2023-02-15T13:26:03;0.30;99.90
3628;DHT22;1830;49.000;12.074;2023-02-15T13:28:36;0.30;99.90
3628;DHT22;1830;49.000;12.074;2023-02-15T13:31:11;0.20;99.90
3628;DHT22;1830;49.000;12.074;2023-02-15T13:33:39;0.30;99.90
3628;DHT22;1830;49.000;12.074;2023-02-15T13:36:16;0.20;99.90
3628;DHT22;1830;49.000;12.074;2023-02-15T13:38:54;0.30;99.90
3628;DHT22;1830;49.000;12.074;2023-02-15T13:41:29;0.40;99.90
3628;DHT22;1830;49.000;12.074;2023-02-15T13:44:05;0.40;99.90
3628;DHT22;1830;49.000;12.074;2023-02-15T13:46:48;0.30;99.90
3628;DHT22;1830;49.000;12.074;2023-02-15T13:49:30;0.40;99.90
3628;DHT22;1830;49.000;12.074;2023-02-15T13:52:07;0.30;99.90
3628;DHT22;1830;49.000;12.074;2023-02-15T13:54:52;0.40;99.90
3628;DHT22;1830;49.000;12.074;2023-02-15T13:57:31;0.40;99.90
3628;DHT22;1830;49.000;12.074;2023-02-15T14:00:12;0.20;99.90
3628;DHT22;1830;49.000;12.074;2023-02-15T14:03:07;0.40;99.90
3628;DHT22;1830;49.000;12.074;2023-02-15T14:06:00;0.30;99.90
3628;DHT22;1830;49.000;12.074;2023-02-15T14:08:43;0.40;99.90
3628;DHT22;1830;49.000;12.074;2023-02-15T14:11:20;0.30;99.90
3628;DHT22;1830;49.000;12.074;2023-02-15T14:14:03;0.30;99.90
3628;DHT22;1830;49.000;12.074;2023-02-15T14:16:41;0.30;99.90
3628;DHT22;1830;49.000;12.074;2023-02-15T14:19:18;0.30;99.90
3628;DHT22;1830;49.000;12.074;2023-02-15T14:21:51;0.30;99.90
3628;DHT22;1830;49.000;12.074;2023-02-15T14:24:27;0.40;99.90
3628;DHT22;1830;49.000;12.074;2023-02-15T14:27:04;0.50;99.90
3628;DHT22;1830;49.000;12.074;2023-02-15T14:29:45;0.50;99.90
3628;DHT22;1830;49.000;12.074;2023-02-15T14:32:18;0.40;99.90
3628;DHT22;1830;49.000;12.074;2023-02-15T14:34:49;0.50;99.90
3628;DHT22;1830;49.000;12.074;2023-02-15T14:37:25;0.60;99.90
3628;DHT22;1830;49.000;12.074;2023-02-15T14:39:57;0.60;99.90
3628;DHT22;1830;49.000;12.074;2023-02-15T14:42:53;0.60;99.90
3628;DHT22;1830;49.000;12.074;2023-02-15T14:45:29;0.60;99.90
3628;DHT22;1830;49.000;12.074;2023-02-15T14:48:07;0.70;99.90
3628;DHT22;1830;49.000;12.074;2023-02-15T14:50:44;0.70;99.90
3628;DHT22;1830;49.000;12.074;2023-02-15T14:53:32;0.70;99.90
3628;DHT22;1830;49.000;12.074;2023-02-15T14:56:22;0.70;99.90
3628;DHT22;1830;49.000;12.074;2023-02-15T14:59:13;0.70;99.90
3628;DHT22;1830;49.000;12.074;2023-02-15T15:01:41;0.60;99.90
3628;DHT22;1830;49.000;12.074;2023-02-15T15:04:10;0.70;99.90
3628;DHT22;1830;49.000;12.074;2023-02-15T15:06:41;0.70;99.90
3628;DHT22;1830;49.000;12.074;2023-02-15T15:09:18;0.50;99.90
3628;DHT22;1830;49.000;12.074;2023-02-15T15:11:49;0.50;99.90
3628;DHT22;1830;49.000;12.074;2023-02-15T15:14:45;0.40;99.90
3628;DHT22;1830;49.000;12.074;2023-02-15T15:17:13;0.20;99.90
3628;DHT22;1830;49.000;12.074;2023-02-15T15:20:11;0.00;99.90
3628;DHT22;1830;49.000;12.074;2023-02-15T15:22:40;0.10;99.90
3628;DHT22;1830;49.000;12.074;2023-02-15T15:25:12;0.10;99.90
3628;DHT22;1830;49.000;12.074;2023-02-15T15:28:01;0.20;99.90
3628;DHT22;1830;49.000;12.074;2023-02-15T15:31:00;0.20;99.90
3628;DHT22;1830;49.000;12.074;2023-02-15T15:40:23;0.20;99.90
3628;DHT22;1830;49.000;12.074;2023-02-15T15:43:28;0.20;99.90
3628;DHT22;1830;49.000;12.074;2023-02-15T15:46:24;0.20;99.90
3628;DHT22;1830;49.000;12.074;2023-02-15T15:49:01;0.00;99.90
3628;DHT22;1830;49.000;12.074;2023-02-15T15:51:32;0.00;99.90
3628;DHT22;1830;49.000;12.074;2023-02-15T15:54:01;0.10;99.90
3628;DHT22;1830;49.000;12.074;2023-02-15T15:56:31;0.20;99.90
3628;DHT22;1830;49.000;12.074;2023-02-15T15:59:02;0.30;99.90
3628;DHT22;1830;49.000;12.074;2023-02-15T16:01:35;0.30;99.90
3628;DHT22;1830;49.000;12.074;2023-02-15T16:04:04;0.30;99.90
3628;DHT22;1830;49.000;12.074;2023-02-15T16:06:33;0.30;99.90
3628;DHT22;1830;49.000;12.074;2023-02-15T16:09:16;0.40;99.90
3628;DHT22;1830;49.000;12.074;2023-02-15T16:11:43;0.40;99.90
3628;DHT22;1830;49.000;12.074;2023-02-15T16:14:16;0.40;99.90
3628;DHT22;1830;49.000;12.074;2023-02-15T16:16:49;0.30;99.90
3628;DHT22;1830;49.000;12.074;2023-02-15T16:19:23;0.20;99.90
3628;DHT22;1830;49.000;12.074;2023-02-15T16:21:51;0.20;99.90
3628;DHT22;1830;49.000;12.074;2023-02-15T16:24:26;0.20;99.90
3628;DHT22;1830;49.000;12.074;2023-02-15T16:29:58;0.20;99.90
3628;DHT22;1830;49.000;12.074;2023-02-15T16:32:37;0.20;99.90
3628;DHT22;1830;49.000;12.074;2023-02-15T16:35:13;0.20;99.90
3628;DHT22;1830;49.000;12.074;2023-02-15T16:37:40;0.30;99.90